Terminal Aerodrome Forecast
Issued by NWS Sioux Falls, SD

Home | Current Version | Previous Version | Text Only | Print | Product List | Glossary On
Versions: 1 2 3 4 5 6 7 8 9 10 11 12 13 14 15 16 17 18 19 20 21
000
FTUS43 KFSD 070247 AAA
TAFFSD
TAF AMD
KFSD 070247Z 0703/0724 01005KT 6SM FU SKC
      TEMPO 0705/0709 4SM FU
     FM071400 03008KT P6SM SKC
     FM072100 07006KT P6SM FEW200=

USA.gov is the U.S. government's official web portal to all federal, state and local government web resources and services.